Temp: 15.3°C   Baro: 1022.8mb
  Wind: 0.0mph   Dir: N (10°)
  Rain: 0.0mm (0.0mm/hr)
  Sun: 0W/m2  Humidity: 71%

Historic data

Bath Spa Weather Station Historical Data
Daily Summary for March 15, 2023 Units:  Metric    English   Both
Daily Weekly Monthly Yearly Custom
  High: Low: Average:
Temperature: 9.4 °C -0.8 °C 4.3 °C
Dew Point: 8.5 °C -1.8 °C 3.1 °C
Humidity: 95% 85% 92%
Wind Speed: 16.1km/h 0km/h 5km/h
Wind Gust: 32.2km/h - -
Wind- - South
Pressure: 1017.2 hPa 1009 hPa -
Precipitation: 4.06 mm    
Historical Graphs
 
 
Tabular Data for March 15, 2023
Time Temperature Dew Point Pressure Wind Wind Speed Wind Gust Humidity Rainfall Rate (Hourly) solar
00:09 1.6 °C 0.4 °C 1015.8 hPa Calm   1.6 km/h 92% 0 mm 0 W/m2
00:14 1.4 °C 0.2 °C 1015.8 hPa WSW 0.3 km/h 1.6 km/h 92% 0 mm 0 W/m2
00:19 1.3 °C 0.2 °C 1015.8 hPa WSW 0.6 km/h 1.6 km/h 92% 0 mm 0 W/m2
00:24 1.3 °C 0.1 °C 1015.8 hPa WSW 1.1 km/h 3.2 km/h 92% 0 mm 0 W/m2
00:29 1.3 °C 0.1 °C 1015.8 hPa WSW 0.6 km/h 3.2 km/h 92% 0.25 mm 0 W/m2
00:34 1.3 °C 0.1 °C 1015.8 hPa WSW 1 km/h 3.2 km/h 92% 0.25 mm 0 W/m2
00:39 1.2 °C 0 °C 1015.8 hPa WSW 1.8 km/h 3.2 km/h 92% 0.25 mm 0 W/m2
00:44 1.1 °C -0.1 °C 1015.8 hPa Calm   1.6 km/h 92% 0.25 mm 0 W/m2
00:49 1 °C -0.2 °C 1016.1 hPa Calm   1.6 km/h 92% 0.25 mm 0 W/m2
00:54 1.1 °C -0.1 °C 1016.1 hPa WSW 1 km/h 4.8 km/h 92% 0.25 mm 0 W/m2
00:59 1.1 °C -0.1 °C 1015.8 hPa WSW 2.9 km/h 4.8 km/h 92% 0.25 mm 0 W/m2
01:04 1 °C -0.2 °C 1016.1 hPa WSW 1.4 km/h 3.2 km/h 92% 0.25 mm 0 W/m2
01:09 1 °C -0.2 °C 1016.1 hPa WSW 0.6 km/h 3.2 km/h 92% 0.25 mm 0 W/m2
01:14 0.9 °C -0.3 °C 1016.1 hPa Calm   1.6 km/h 92% 0.25 mm 0 W/m2
01:19 0.9 °C -0.3 °C 1016.1 hPa Calm     92% 0.25 mm 0 W/m2
01:24 0.8 °C -0.4 °C 1016.1 hPa WSW 0.3 km/h 1.6 km/h 92% 0.25 mm 0 W/m2
01:28 0.7 °C -0.4 °C 1016.1 hPa WSW 0.8 km/h 3.2 km/h 92% 0 mm 0 W/m2
01:34 0.7 °C -0.5 °C 1016.5 hPa WSW 1.4 km/h 3.2 km/h 92% 0 mm 0 W/m2
01:39 0.7 °C -0.5 °C 1016.5 hPa WSW 2.1 km/h 3.2 km/h 92% 0 mm 0 W/m2
01:44 0.7 °C -0.5 °C 1016.5 hPa WSW 0.6 km/h 3.2 km/h 92% 0 mm 0 W/m2
01:49 0.7 °C -0.4 °C 1016.1 hPa WSW 0.6 km/h 1.6 km/h 92.6% 0 mm 0 W/m2
01:54 0.6 °C -0.4 °C 1016.1 hPa WSW 2.6 km/h 3.2 km/h 93% 0 mm 0 W/m2
01:59 0.6 °C -0.4 °C 1016.1 hPa Calm   3.2 km/h 93% 0 mm 0 W/m2
02:04 0.4 °C -0.7 °C 1016.1 hPa WSW 0.3 km/h 1.6 km/h 92.6% 0 mm 0 W/m2
02:09 0.4 °C -0.6 °C 1016.1 hPa WSW 1 km/h 3.2 km/h 93% 0 mm 0 W/m2
02:14 0.3 °C -0.7 °C 1016.5 hPa WSW 2.3 km/h 4.8 km/h 93% 0 mm 0 W/m2
02:19 0.1 °C -0.9 °C 1016.5 hPa WSW 3.2 km/h 4.8 km/h 93% 0 mm 0 W/m2
02:24 0.1 °C -0.9 °C 1016.5 hPa WSW 3.9 km/h 6.4 km/h 93% 0 mm 0 W/m2
02:29 0.1 °C -0.9 °C 1016.5 hPa WSW 4.3 km/h 6.4 km/h 93% 0 mm 0 W/m2
02:34 0.2 °C -0.8 °C 1016.5 hPa Calm   4.8 km/h 93% 0 mm 0 W/m2
02:39 0.2 °C -0.8 °C 1016.5 hPa WSW 1.3 km/h 3.2 km/h 93% 0 mm 0 W/m2
02:44 0.1 °C -0.9 °C 1016.5 hPa WSW 1.4 km/h 3.2 km/h 93% 0 mm 0 W/m2
02:49 0 °C -1 °C 1016.1 hPa WSW 2.6 km/h 4.8 km/h 93% 0 mm 0 W/m2
02:54 0.1 °C -0.9 °C 1016.1 hPa WSW 1.4 km/h 3.2 km/h 93% 0 mm 0 W/m2
02:59 0 °C -1 °C 1016.1 hPa Calm   1.6 km/h 93% 0 mm 0 W/m2
03:04 0 °C -1 °C 1016.5 hPa Calm   1.6 km/h 93% 0 mm 0 W/m2
03:09 -0.1 °C -1.1 °C 1016.5 hPa Calm   1.6 km/h 93% 0 mm 0 W/m2
03:14 -0.1 °C -1.1 °C 1016.5 hPa Calm     93% 0 mm 0 W/m2
03:19 -0.1 °C -1.1 °C 1016.5 hPa WSW 0.6 km/h 1.6 km/h 93% 0 mm 0 W/m2
03:24 -0.2 °C -1.2 °C 1016.5 hPa WSW 0.3 km/h 3.2 km/h 93% 0 mm 0 W/m2
03:29 -0.3 °C -1.3 °C 1016.5 hPa Calm     93% 0 mm 0 W/m2
03:34 -0.3 °C -1.3 °C 1016.5 hPa Calm     93% 0 mm 0 W/m2
03:39 -0.4 °C -1.4 °C 1016.5 hPa Calm     93% 0 mm 0 W/m2
03:44 -0.4 °C -1.4 °C 1016.8 hPa WSW 0.6 km/h 3.2 km/h 93% 0 mm 0 W/m2
03:49 -0.5 °C -1.5 °C 1016.8 hPa WSW 1.4 km/h 3.2 km/h 93% 0 mm 0 W/m2
03:54 -0.5 °C -1.5 °C 1016.5 hPa WSW 0.8 km/h 1.6 km/h 93% 0 mm 0 W/m2
03:59 -0.4 °C -1.4 °C 1016.5 hPa WSW 0.6 km/h 1.6 km/h 93% 0 mm 0 W/m2
04:04 -0.4 °C -1.4 °C 1016.5 hPa Calm     93% 0 mm 0 W/m2
04:09 -0.5 °C -1.5 °C 1016.5 hPa Calm     93% 0 mm 0 W/m2
04:14 -0.6 °C -1.6 °C 1016.5 hPa Calm     93% 0 mm 0 W/m2
04:19 -0.6 °C -1.6 °C 1016.5 hPa Calm     93% 0 mm 0 W/m2
04:24 -0.6 °C -1.6 °C 1016.5 hPa Calm     93% 0 mm 0 W/m2
04:29 -0.7 °C -1.7 °C 1016.8 hPa WSW 0.3 km/h 1.6 km/h 93% 0 mm 0 W/m2
04:34 -0.7 °C -1.7 °C 1016.5 hPa Calm     93% 0 mm 0 W/m2
04:39 -0.7 °C -1.7 °C 1016.5 hPa WSW 0.3 km/h 1.6 km/h 93% 0 mm 0 W/m2
04:44 -0.7 °C -1.7 °C 1016.5 hPa Calm   1.6 km/h 93% 0 mm 0 W/m2
04:49 -0.8 °C -1.8 °C 1016.5 hPa Calm     93% 0 mm 0 W/m2
04:54 -0.8 °C -1.8 °C 1016.5 hPa Calm     93% 0 mm 0 W/m2
04:59 -0.7 °C -1.7 °C 1016.5 hPa Calm     93% 0 mm 0 W/m2
05:04 -0.7 °C -1.6 °C 1016.5 hPa WSW 0.3 km/h 1.6 km/h 93.6% 0 mm 0 W/m2
05:09 -0.7 °C -1.4 °C 1016.8 hPa Calm   1.6 km/h 94% 0 mm 0 W/m2
05:14 -0.7 °C -1.7 °C 1016.8 hPa Calm   1.6 km/h 93% 0 mm 0 W/m2
05:19 -0.7 °C -1.6 °C 1016.8 hPa Calm     93.4% 0 mm 0 W/m2
05:24 -0.7 °C -1.7 °C 1016.8 hPa Calm     93.2% 0 mm 0 W/m2
05:29 -0.7 °C -1.6 °C 1016.8 hPa Calm     93.8% 0 mm 0 W/m2
05:34 -0.7 °C -1.5 °C 1016.8 hPa Calm     94% 0 mm 0 W/m2
05:39 -0.7 °C -1.5 °C 1016.8 hPa Calm     94% 0 mm 0 W/m2
05:44 -0.7 °C -1.5 °C 1016.8 hPa Calm     94% 0 mm 0 W/m2
05:49 -0.7 °C -1.5 °C 1016.8 hPa Calm     94% 0 mm 0 W/m2
05:54 -0.7 °C -1.5 °C 1016.8 hPa Calm     94% 0 mm 0 W/m2
05:59 -0.7 °C -1.5 °C 1016.8 hPa Calm     94% 0 mm 0 W/m2
06:04 -0.7 °C -1.5 °C 1016.8 hPa Calm     94% 0 mm 0 W/m2
06:09 -0.7 °C -1.5 °C 1016.8 hPa WSW 0.6 km/h 3.2 km/h 94% 0 mm 0 W/m2
06:14 -0.7 °C -1.5 °C 1016.8 hPa WSW 0.8 km/h 1.6 km/h 94% 0 mm 0 W/m2
06:19 -0.7 °C -1.5 °C 1017.2 hPa Calm   1.6 km/h 94% 0 mm 0 W/m2
06:24 -0.7 °C -1.5 °C 1017.2 hPa WSW 0.6 km/h 1.6 km/h 94% 0 mm 0 W/m2
06:29 -0.7 °C -1.5 °C 1017.2 hPa WSW 0.6 km/h 1.6 km/h 94% 0 mm 5 W/m2
06:34 -0.7 °C -1.5 °C 1017.2 hPa WSW 0.6 km/h 3.2 km/h 94% 0 mm 9 W/m2
06:39 -0.7 °C -1.5 °C 1017.2 hPa WSW 1.4 km/h 3.2 km/h 94% 0 mm 12 W/m2
06:44 -0.7 °C -1.5 °C 1017.2 hPa WSW 0.8 km/h 3.2 km/h 94% 0 mm 16 W/m2
06:49 -0.7 °C -1.5 °C 1017.2 hPa WSW 0.3 km/h 3.2 km/h 94% 0 mm 21 W/m2
06:54 -0.7 °C -1.5 °C 1017.2 hPa WSW 0.3 km/h 1.6 km/h 94% 0 mm 25 W/m2
06:59 -0.7 °C -1.5 °C 1017.2 hPa WSW 0.6 km/h 1.6 km/h 94% 0 mm 30 W/m2
07:04 -0.7 °C -1.5 °C 1017.2 hPa WSW 0.3 km/h 1.6 km/h 94% 0 mm 37 W/m2
07:09 -0.7 °C -1.4 °C 1017.2 hPa WSW 0.6 km/h 1.6 km/h 94% 0 mm 44 W/m2
07:14 -0.6 °C -1.4 °C 1017.2 hPa Calm   1.6 km/h 94% 0 mm 47 W/m2
07:19 -0.6 °C -1.4 °C 1017.2 hPa Calm   1.6 km/h 94% 0 mm 49 W/m2
07:24 -0.6 °C -1.3 °C 1017.2 hPa Calm   1.6 km/h 94% 0 mm 53 W/m2
07:29 -0.4 °C -1.2 °C 1017.2 hPa Calm     94% 0 mm 56 W/m2
07:34 -0.3 °C -1.1 °C 1017.2 hPa Calm     94% 0 mm 67 W/m2
07:39 0 °C -0.8 °C 1017.2 hPa Calm     94% 0 mm 83 W/m2
07:44 1.3 °C 0.4 °C 1017.2 hPa Calm     94% 0.25 mm 91 W/m2
07:49 2.3 °C 1.5 °C 1017.2 hPa Calm     94.6% 0.25 mm 91 W/m2
07:54 3 °C 2.3 °C 1017.2 hPa Calm     95% 0.25 mm 95 W/m2
07:59 2.8 °C 2.1 °C 1017.2 hPa WSW 0.8 km/h 3.2 km/h 95% 0.25 mm 102 W/m2
08:04 2.8 °C 2.1 °C 1017.2 hPa Calm   1.6 km/h 94.8% 0.25 mm 102 W/m2
08:09 3.1 °C 2.3 °C 1017.2 hPa WSW 0.6 km/h 1.6 km/h 95% 0.25 mm 102 W/m2
08:14 2.6 °C 1.7 °C 1017.2 hPa WSW 1.1 km/h 1.6 km/h 94.4% 0.25 mm 105 W/m2
08:19 2.2 °C 1.4 °C 1017.2 hPa WSW 2.6 km/h 4.8 km/h 94.4% 0.25 mm 105 W/m2
08:24 1.9 °C 1.1 °C 1017.2 hPa WSW 0.6 km/h 3.2 km/h 94% 0.25 mm 113 W/m2
08:29 1.9 °C 1 °C 1017.2 hPa Calm     94% 0.25 mm 111 W/m2
08:34 1.9 °C 1 °C 1017.2 hPa WSW 1.3 km/h 3.2 km/h 94% 0.25 mm 105 W/m2
08:39 1.9 °C 1 °C 1017.2 hPa WSW 0.8 km/h 3.2 km/h 94% 0.25 mm 111 W/m2
08:44 1.9 °C 1.1 °C 1017.2 hPa SW 1.6 km/h 4.8 km/h 94.2% 0.25 mm 114 W/m2
08:49 2.1 °C 1.2 °C 1017.2 hPa SSE 4.5 km/h 12.9 km/h 94% 0 mm 116 W/m2
08:54 2 °C 1.1 °C 1017.2 hPa ESE 2.6 km/h 6.4 km/h 94% 0 mm 123 W/m2
08:59 2.1 °C 1.2 °C 1017.2 hPa ESE 3.4 km/h 6.4 km/h 94% 0 mm 135 W/m2
09:04 2.2 °C 1.4 °C 1017.2 hPa ESE 1.8 km/h 6.4 km/h 94.6% 0 mm 148 W/m2
09:09 2.3 °C 1.6 °C 1017.2 hPa ESE 2.7 km/h 6.4 km/h 95% 0 mm 149 W/m2
09:14 2.3 °C 1.5 °C 1017.2 hPa ESE 4.5 km/h 8 km/h 94.4% 0 mm 148 W/m2
09:19 2.5 °C 1.7 °C 1017.2 hPa ESE 3.9 km/h 6.4 km/h 94.6% 0 mm 155 W/m2
09:24 2.7 °C 1.9 °C 1017.2 hPa ESE 2.1 km/h 6.4 km/h 94.6% 0 mm 169 W/m2
09:29 2.7 °C 1.8 °C 1017.2 hPa ESE 1 km/h 6.4 km/h 94% 0 mm 179 W/m2
09:34 2.8 °C 1.9 °C 1017.2 hPa ESE 2.1 km/h 4.8 km/h 94% 0 mm 181 W/m2
09:39 3.1 °C 2.3 °C 1017.2 hPa ESE 2.7 km/h 4.8 km/h 94.8% 0 mm 181 W/m2
09:44 3.2 °C 2.4 °C 1017.2 hPa ESE 2.7 km/h 6.4 km/h 94.2% 0 mm 188 W/m2
09:49 3.3 °C 2.6 °C 1017.2 hPa ESE 2.7 km/h 6.4 km/h 94.8% 0 mm 204 W/m2
09:54 3.4 °C 2.7 °C 1017.2 hPa ESE 3.7 km/h 8 km/h 94.6% 0 mm 206 W/m2
09:59 3.7 °C 2.9 °C 1017.2 hPa ESE 2.7 km/h 8 km/h 94.5% 0 mm 206 W/m2
10:04 3.8 °C 3.1 °C 1017.2 hPa ESE 3.4 km/h 6.4 km/h 95% 0 mm 204 W/m2
10:09 3.9 °C 3.1 °C 1017.2 hPa ESE 2.1 km/h 4.8 km/h 94.2% 0 mm 214 W/m2
10:14 4.1 °C 3.3 °C 1017.2 hPa ESE 1 km/h 3.2 km/h 94.8% 0 mm 216 W/m2
10:19 4.3 °C 3.3 °C 1016.8 hPa ESE 2.3 km/h 6.4 km/h 94% 0 mm 214 W/m2
10:24 4.4 °C 3.7 °C 1016.8 hPa ESE 1.8 km/h 6.4 km/h 94.8% 0 mm 213 W/m2
10:29 4.4 °C 3.7 °C 1016.8 hPa East 1.3 km/h 4.8 km/h 94.8% 0 mm 214 W/m2
10:34 4.4 °C 3.5 °C 1016.8 hPa East 1.4 km/h 4.8 km/h 94% 0 mm 216 W/m2
10:39 4.4 °C 3.5 °C 1016.8 hPa ESE 3.7 km/h 8 km/h 94% 0 mm 230 W/m2
10:44 4.6 °C 3.7 °C 1016.8 hPa ESE 2.7 km/h 11.3 km/h 94% 0 mm 241 W/m2
10:49 4.7 °C 3.8 °C 1016.8 hPa SE 6.4 km/h 8 km/h 94% 0 mm 244 W/m2
10:54 4.7 °C 3.8 °C 1016.8 hPa SE 3.9 km/h 6.4 km/h 94% 0 mm 248 W/m2
10:59 4.8 °C 3.9 °C 1016.8 hPa SE 4.5 km/h 8 km/h 94% 0 mm 248 W/m2
11:04 5 °C 4.1 °C 1016.8 hPa SE 3.9 km/h 6.4 km/h 93.8% 0 mm 253 W/m2
11:09 5.2 °C 4.2 °C 1016.8 hPa SE 2.1 km/h 6.4 km/h 93% 0 mm 250 W/m2
11:14 5.3 °C 4.3 °C 1016.8 hPa SE 4.7 km/h 8 km/h 93% 0 mm 236 W/m2
11:19 5.6 °C 4.6 °C 1016.8 hPa SE 4 km/h 9.7 km/h 93% 0 mm 237 W/m2
11:24 5.7 °C 4.6 °C 1016.8 hPa SE 3.4 km/h 8 km/h 92.4% 0 mm 227 W/m2
11:29 5.7 °C 4.5 °C 1016.8 hPa SE 3.2 km/h 6.4 km/h 92% 0 mm 218 W/m2
11:34 5.8 °C 4.6 °C 1016.8 hPa SSE 7.2 km/h 12.9 km/h 91.8% 0 mm 206 W/m2
11:39 5.8 °C 4.4 °C 1016.8 hPa SSE 4.2 km/h 9.7 km/h 91% 0 mm 193 W/m2
11:44 6 °C 4.6 °C 1016.8 hPa South 4.5 km/h 9.7 km/h 90.4% 0 mm 192 W/m2
11:49 6.2 °C 4.7 °C 1016.5 hPa SSE 6.9 km/h 14.5 km/h 90% 0 mm 211 W/m2
11:53 6.3 °C 4.7 °C 1016.5 hPa SE 5.6 km/h 14.5 km/h 89.8% 0 mm 216 W/m2
11:59 6.4 °C 4.7 °C 1016.5 hPa SSE 7.9 km/h 14.5 km/h 89% 0 mm 229 W/m2
12:04 6.4 °C 4.7 °C 1016.5 hPa South 8.2 km/h 16.1 km/h 88.2% 0 mm 230 W/m2
12:09 6.7 °C 4.8 °C 1016.5 hPa South 5.3 km/h 11.3 km/h 88% 0 mm 227 W/m2
12:14 6.8 °C 5 °C 1016.5 hPa South 6.3 km/h 14.5 km/h 88% 0 mm 207 W/m2
12:19 6.7 °C 4.9 °C 1016.5 hPa SSE 6.4 km/h 11.3 km/h 87.8% 0 mm 234 W/m2
12:24 6.7 °C 4.7 °C 1016.5 hPa SSE 8 km/h 14.5 km/h 87% 0 mm 290 W/m2
12:29 6.7 °C 4.7 °C 1016.5 hPa SSE 7.4 km/h 14.5 km/h 87% 0 mm 287 W/m2
12:34 6.8 °C 4.8 °C 1016.5 hPa SSE 6.3 km/h 12.9 km/h 87% 0 mm 264 W/m2
12:39 6.8 °C 4.8 °C 1016.5 hPa SSE 7.9 km/h 12.9 km/h 87% 0 mm 276 W/m2
12:44 6.8 °C 4.8 °C 1016.1 hPa SSE 7.1 km/h 14.5 km/h 87% 0 mm 225 W/m2
12:49 6.9 °C 4.9 °C 1016.1 hPa SSE 7.9 km/h 14.5 km/h 87% 0 mm 155 W/m2
12:54 6.9 °C 5 °C 1016.1 hPa SSE 7.6 km/h 11.3 km/h 87.4% 0 mm 213 W/m2
12:59 6.9 °C 5.1 °C 1016.1 hPa SSE 4.8 km/h 11.3 km/h 88% 0 mm 199 W/m2
13:04 6.9 °C 5.1 °C 1016.1 hPa SSE 6.8 km/h 12.9 km/h 88% 0 mm 109 W/m2
13:09 6.9 °C 5.1 °C 1015.8 hPa SE 5.8 km/h 11.3 km/h 88% 0 mm 90 W/m2
13:14 6.9 °C 5.1 °C 1015.8 hPa SE 7.2 km/h 14.5 km/h 88% 0 mm 130 W/m2
13:19 6.8 °C 5 °C 1015.5 hPa SSE 6.3 km/h 12.9 km/h 88% 0 mm 174 W/m2
13:24 6.8 °C 5.1 °C 1015.5 hPa SSE 4.5 km/h 11.3 km/h 88% 0 mm 179 W/m2
13:29 6.9 °C 5.2 °C 1015.5 hPa South 5.3 km/h 11.3 km/h 88.6% 0 mm 246 W/m2
13:34 6.9 °C 5.2 °C 1015.5 hPa SSE 6.3 km/h 12.9 km/h 89% 0 mm 246 W/m2
13:39 7.1 °C 5.3 °C 1015.5 hPa SSE 5.1 km/h 9.7 km/h 89% 0 mm 183 W/m2
13:44 7.2 °C 5.4 °C 1015.1 hPa SSE 5.3 km/h 11.3 km/h 89% 0 mm 105 W/m2
13:49 7.1 °C 5.4 °C 1015.1 hPa SSE 7.7 km/h 11.3 km/h 89% 0 mm 91 W/m2
13:54 7.2 °C 5.4 °C 1015.1 hPa SSE 3.4 km/h 9.7 km/h 89% 0 mm 148 W/m2
13:59 7.2 °C 5.5 °C 1015.1 hPa SSE 4.5 km/h 8 km/h 89% 0 mm 167 W/m2
14:04 7.2 °C 5.6 °C 1015.1 hPa SSE 6.9 km/h 16.1 km/h 89% 0 mm 139 W/m2
14:09 7.3 °C 5.7 °C 1015.1 hPa South 2.3 km/h 9.7 km/h 89% 0.25 mm 118 W/m2
14:14 7.4 °C 5.6 °C 1015.1 hPa South 3.4 km/h 6.4 km/h 88% 0.25 mm 105 W/m2
14:19 7.3 °C 5.4 °C 1014.8 hPa South 6.6 km/h 14.5 km/h 88% 0.25 mm 111 W/m2
14:24 7.3 °C 5.4 °C 1014.8 hPa South 6.4 km/h 16.1 km/h 88% 0.51 mm 116 W/m2
14:29 7.2 °C 5.3 °C 1014.8 hPa South 11.9 km/h 17.7 km/h 87.4% 0.51 mm 142 W/m2
14:34 7.2 °C 5.2 °C 1014.8 hPa South 10.5 km/h 25.7 km/h 87% 0.51 mm 169 W/m2
14:39 7.2 °C 5.1 °C 1014.4 hPa SSE 7.2 km/h 22.5 km/h 86.6% 0.51 mm 176 W/m2
14:43 7.1 °C 4.9 °C 1014.4 hPa SSE 10.1 km/h 19.3 km/h 86% 0.51 mm 176 W/m2
14:49 7.2 °C 5 °C 1014.4 hPa SSE 7.2 km/h 19.3 km/h 86% 0.51 mm 162 W/m2
14:54 7.2 °C 5 °C 1014.4 hPa South 8.7 km/h 16.1 km/h 86% 0.51 mm 149 W/m2
14:59 7.2 °C 5 °C 1014.4 hPa SSE 7.7 km/h 14.5 km/h 86% 0.76 mm 144 W/m2
15:04 7.2 °C 5 °C 1014.4 hPa SSE 7.7 km/h 16.1 km/h 86% 0.76 mm 162 W/m2
15:09 7.2 °C 4.8 °C 1014.1 hPa SSE 11.6 km/h 20.9 km/h 85.2% 0.51 mm 167 W/m2
15:14 7.2 °C 4.8 °C 1014.1 hPa SSE 9.7 km/h 20.9 km/h 85% 0.51 mm 151 W/m2
15:19 7.3 °C 4.9 °C 1014.1 hPa SSE 7.1 km/h 14.5 km/h 85% 0.51 mm 178 W/m2
15:24 7.3 °C 4.9 °C 1013.8 hPa SE 7.2 km/h 19.3 km/h 85% 0.51 mm 176 W/m2
15:29 7.4 °C 5.1 °C 1013.4 hPa SE 7.4 km/h 14.5 km/h 85.2% 0.51 mm 139 W/m2
15:34 7.4 °C 5.2 °C 1013.4 hPa SE 7.4 km/h 19.3 km/h 86% 0.51 mm 127 W/m2
15:39 7.4 °C 5.2 °C 1013.4 hPa SSE 9.3 km/h 17.7 km/h 86% 0.25 mm 83 W/m2
15:44 7.3 °C 5.1 °C 1013.4 hPa SSE 9.5 km/h 22.5 km/h 86% 0.51 mm 74 W/m2
15:49 7.3 °C 5.1 °C 1013.4 hPa SE 7.6 km/h 20.9 km/h 86% 0.51 mm 60 W/m2
15:54 7.3 °C 5.2 °C 1013.4 hPa SSE 10.8 km/h 17.7 km/h 86.4% 0.51 mm 42 W/m2
15:59 7.2 °C 5.2 °C 1013.4 hPa SE 12.7 km/h 22.5 km/h 87% 0.51 mm 40 W/m2
16:04 7.2 °C 5.2 °C 1013.1 hPa SSE 8.4 km/h 17.7 km/h 87% 0.51 mm 58 W/m2
16:09 7.1 °C 5.1 °C 1013.1 hPa SSE 7.7 km/h 16.1 km/h 87% 0.51 mm 70 W/m2
16:13 7.1 °C 5.2 °C 1013.1 hPa SSE 7.1 km/h 14.5 km/h 87.5% 0.51 mm 74 W/m2
16:19 7.1 °C 5.2 °C 1013.1 hPa SE 8.4 km/h 14.5 km/h 88% 0.51 mm 65 W/m2
16:24 7.1 °C 5.2 °C 1013.1 hPa SSE 11.9 km/h 20.9 km/h 88% 0.51 mm 60 W/m2
16:29 7.1 °C 5.1 °C 1013.1 hPa SE 10.6 km/h 20.9 km/h 87% 0.51 mm 69 W/m2
16:34 7.1 °C 5.1 °C 1013.1 hPa SSE 11.7 km/h 17.7 km/h 87% 0.51 mm 79 W/m2
16:39 7 °C 5 °C 1013.1 hPa SE 7.4 km/h 17.7 km/h 87% 0.51 mm 77 W/m2
16:44 7.1 °C 5.1 °C 1013.1 hPa SSE 10 km/h 19.3 km/h 87% 0.51 mm 58 W/m2
16:49 7 °C 5 °C 1012.8 hPa SSE 8.7 km/h 16.1 km/h 87% 0.51 mm 47 W/m2
16:54 7 °C 5 °C 1012.8 hPa SE 8.9 km/h 17.7 km/h 87% 0.51 mm 44 W/m2
16:59 6.9 °C 4.9 °C 1012.8 hPa South 13.5 km/h 29 km/h 87% 0.51 mm 44 W/m2
17:04 6.9 °C 4.9 °C 1012.8 hPa SSE 12.1 km/h 27.4 km/h 87% 0.51 mm 35 W/m2
17:09 6.9 °C 4.9 °C 1012.8 hPa SE 8.7 km/h 19.3 km/h 87% 0.51 mm 26 W/m2
17:14 6.9 °C 4.9 °C 1012.4 hPa SSE 9.3 km/h 20.9 km/h 87% 0.25 mm 16 W/m2
17:19 6.9 °C 4.9 °C 1012.4 hPa SE 9.3 km/h 22.5 km/h 87% 0.25 mm 18 W/m2
17:24 6.8 °C 4.8 °C 1012.4 hPa SSE 10.8 km/h 22.5 km/h 86.6% 0.25 mm 19 W/m2
17:29 6.9 °C 4.7 °C 1012.4 hPa SSE 11.9 km/h 27.4 km/h 86% 0.25 mm 19 W/m2
17:33 6.9 °C 4.7 °C 1012.4 hPa SSE 9.7 km/h 25.7 km/h 86% 0.25 mm 14 W/m2
17:39 6.9 °C 4.7 °C 1012.1 hPa SSE 12.6 km/h 20.9 km/h 86% 0.25 mm 14 W/m2
17:44 6.9 °C 4.7 °C 1012.1 hPa SSE 7.6 km/h 22.5 km/h 86% 0.25 mm 12 W/m2
17:49 6.9 °C 4.7 °C 1012.1 hPa SSE 9.5 km/h 22.5 km/h 86% 0.25 mm 7 W/m2
17:54 6.9 °C 4.7 °C 1012.1 hPa SSE 9.2 km/h 19.3 km/h 86% 0 mm 7 W/m2
17:59 6.9 °C 4.7 °C 1012.1 hPa SSE 8 km/h 20.9 km/h 86% 0 mm 5 W/m2
18:04 6.9 °C 4.8 °C 1012.1 hPa SSE 13.7 km/h 25.7 km/h 86.2% 0 mm 0 W/m2
18:09 7 °C 4.9 °C 1012.1 hPa South 9.7 km/h 20.9 km/h 86.6% 0 mm 0 W/m2
18:14 7 °C 5 °C 1012.1 hPa SSE 10.8 km/h 22.5 km/h 87% 0 mm 0 W/m2
18:19 7.1 °C 5.1 °C 1012.1 hPa SSE 12.6 km/h 19.3 km/h 87% 0 mm 0 W/m2
18:24 7.1 °C 5.1 °C 1012.1 hPa SSE 14.2 km/h 32.2 km/h 87.4% 0 mm 0 W/m2
18:29 6.9 °C 5.1 °C 1011.7 hPa SSE 12.6 km/h 20.9 km/h 88% 0 mm 0 W/m2
18:34 6.9 °C 5.2 °C 1012.1 hPa SSE 12.9 km/h 22.5 km/h 88.4% 0.25 mm 0 W/m2
18:39 6.9 °C 5.2 °C 1012.1 hPa SSE 14.5 km/h 25.7 km/h 89% 0.25 mm 0 W/m2
18:44 6.9 °C 5.2 °C 1011.7 hPa SSE 9.7 km/h 19.3 km/h 89% 0.25 mm 0 W/m2
18:49 6.9 °C 5.3 °C 1011.7 hPa South 11.4 km/h 24.1 km/h 89.4% 0.25 mm 0 W/m2
18:54 6.9 °C 5.4 °C 1011.7 hPa SSE 10.6 km/h 19.3 km/h 90% 0.25 mm 0 W/m2
18:59 6.8 °C 5.3 °C 1011.7 hPa SSE 8.7 km/h 17.7 km/h 90% 0.25 mm 0 W/m2
19:04 6.8 °C 5.3 °C 1011.7 hPa SE 10 km/h 19.3 km/h 90.4% 0.51 mm 0 W/m2
19:09 6.8 °C 5.4 °C 1011.7 hPa SSE 10.3 km/h 20.9 km/h 91% 0.51 mm 0 W/m2
19:14 6.8 °C 5.4 °C 1011.7 hPa SE 12.1 km/h 17.7 km/h 91% 0.76 mm 0 W/m2
19:19 6.8 °C 5.4 °C 1011.7 hPa SSE 11.7 km/h 25.7 km/h 91% 1.02 mm 0 W/m2
19:24 6.8 °C 5.4 °C 1011.7 hPa SSE 13.2 km/h 25.7 km/h 91% 1.02 mm 0 W/m2
19:29 6.9 °C 5.6 °C 1011.7 hPa SSE 10.6 km/h 20.9 km/h 91.4% 1.02 mm 0 W/m2
19:34 6.9 °C 5.7 °C 1011.4 hPa SSE 13.5 km/h 20.9 km/h 92% 1.02 mm 0 W/m2
19:39 6.9 °C 5.7 °C 1011.4 hPa SSE 14.2 km/h 20.9 km/h 92% 1.02 mm 0 W/m2
19:44 7 °C 5.8 °C 1011.1 hPa SSE 14.3 km/h 25.7 km/h 92% 1.02 mm 0 W/m2
19:49 7 °C 5.8 °C 1011.1 hPa SSE 10.3 km/h 20.9 km/h 92% 1.02 mm 0 W/m2
19:54 7.1 °C 5.9 °C 1011.1 hPa South 10.9 km/h 24.1 km/h 92% 1.02 mm 0 W/m2
19:59 7.1 °C 5.9 °C 1011.1 hPa SSE 11.9 km/h 22.5 km/h 92% 1.27 mm 0 W/m2
20:04 7.1 °C 6 °C 1011.1 hPa South 12.9 km/h 24.1 km/h 92.8% 1.27 mm 0 W/m2
20:09 7.2 °C 6 °C 1011.1 hPa SSE 15.4 km/h 27.4 km/h 92% 1.02 mm 0 W/m2
20:14 7.2 °C 6.1 °C 1011.1 hPa SSE 12.2 km/h 22.5 km/h 93% 0.76 mm 0 W/m2
20:19 7.2 °C 6.1 °C 1010.7 hPa SSE 9.7 km/h 24.1 km/h 93% 0.51 mm 0 W/m2
20:24 7.2 °C 6.1 °C 1010.7 hPa SSE 12.9 km/h 20.9 km/h 93% 0.51 mm 0 W/m2
20:29 7.2 °C 6.1 °C 1010.7 hPa SE 13.5 km/h 25.7 km/h 93% 0.51 mm 0 W/m2
20:34 7.2 °C 6.2 °C 1010.7 hPa SSE 11.3 km/h 24.1 km/h 93% 0.51 mm 0 W/m2
20:39 7.3 °C 6.2 °C 1010.7 hPa SE 11.9 km/h 29 km/h 93% 0.51 mm 0 W/m2
20:44 7.3 °C 6.2 °C 1010.7 hPa SE 11.3 km/h 27.4 km/h 93% 0.51 mm 0 W/m2
20:49 7.3 °C 6.2 °C 1010.7 hPa SE 16.1 km/h 24.1 km/h 93% 0.51 mm 0 W/m2
20:54 7.3 °C 6.3 °C 1010.7 hPa SSE 11.3 km/h 24.1 km/h 93% 0.51 mm 0 W/m2
20:59 7.4 °C 6.3 °C 1010.7 hPa SE 10.9 km/h 24.1 km/h 93% 0.51 mm 0 W/m2
21:04 7.4 °C 6.3 °C 1010.7 hPa SSE 11.3 km/h 19.3 km/h 93% 0.51 mm 0 W/m2
21:09 7.4 °C 6.3 °C 1010.4 hPa SSE 12.2 km/h 22.5 km/h 93% 0.51 mm 0 W/m2
21:14 7.5 °C 6.4 °C 1010.4 hPa SSE 10.3 km/h 17.7 km/h 93% 0.25 mm 0 W/m2
21:19 7.5 °C 6.4 °C 1010.4 hPa SSE 12.9 km/h 22.5 km/h 93% 0.25 mm 0 W/m2
21:24 7.6 °C 6.4 °C 1010.4 hPa SSE 10.3 km/h 19.3 km/h 93% 0.25 mm 0 W/m2
21:29 7.6 °C 6.5 °C 1010.4 hPa SSE 9.8 km/h 16.1 km/h 93% 0.25 mm 0 W/m2
21:34 7.6 °C 6.5 °C 1010.4 hPa SSE 8.7 km/h 22.5 km/h 93% 0.25 mm 0 W/m2
21:39 7.7 °C 6.6 °C 1010.4 hPa SE 10 km/h 16.1 km/h 93% 0 mm 0 W/m2
21:44 7.7 °C 6.6 °C 1010 hPa SSE 7.1 km/h 16.1 km/h 93% 0 mm 0 W/m2
21:48 7.7 °C 6.6 °C 1010 hPa SE 6.8 km/h 16.1 km/h 93% 0 mm 0 W/m2
21:54 7.7 °C 6.6 °C 1010 hPa SSE 6.6 km/h 14.5 km/h 93% 0 mm 0 W/m2
21:59 7.7 °C 6.7 °C 1010 hPa SE 6.3 km/h 12.9 km/h 93% 0.25 mm 0 W/m2
22:04 7.8 °C 6.7 °C 1010 hPa SSE 7.7 km/h 14.5 km/h 93% 0.25 mm 0 W/m2
22:09 7.8 °C 6.7 °C 1010 hPa SSE 6.4 km/h 14.5 km/h 93% 0.25 mm 0 W/m2
22:14 7.8 °C 6.9 °C 1009.7 hPa SSE 5.1 km/h 11.3 km/h 94% 0.25 mm 0 W/m2
22:19 7.9 °C 7 °C 1009.7 hPa SE 3.9 km/h 12.9 km/h 94% 0.25 mm 0 W/m2
22:24 7.9 °C 7 °C 1009.7 hPa SSE 6.8 km/h 11.3 km/h 94% 0.25 mm 0 W/m2
22:29 8.1 °C 7.2 °C 1009.7 hPa SE 4.3 km/h 11.3 km/h 94% 0.25 mm 0 W/m2
22:34 8.1 °C 7.2 °C 1009.7 hPa SE 4.7 km/h 14.5 km/h 94% 0.25 mm 0 W/m2
22:39 8.2 °C 7.3 °C 1009.7 hPa SSE 4.8 km/h 14.5 km/h 94% 0.25 mm 0 W/m2
22:44 8.2 °C 7.3 °C 1009.7 hPa SE 4.5 km/h 9.7 km/h 94% 0.25 mm 0 W/m2
22:49 8.3 °C 7.4 °C 1009.4 hPa SSE 4.5 km/h 11.3 km/h 94% 0.25 mm 0 W/m2
22:54 8.3 °C 7.4 °C 1009.4 hPa SE 4 km/h 9.7 km/h 94% 0.25 mm 0 W/m2
22:59 8.4 °C 7.6 °C 1009.4 hPa SSE 2.7 km/h 6.4 km/h 94% 0.25 mm 0 W/m2
23:04 8.6 °C 7.7 °C 1009.4 hPa SSE 3.4 km/h 6.4 km/h 94% 0 mm 0 W/m2
23:09 8.7 °C 7.8 °C 1009.4 hPa South 4 km/h 11.3 km/h 94% 0 mm 0 W/m2
23:14 8.9 °C 8 °C 1009.4 hPa South 3.1 km/h 8 km/h 94% 0 mm 0 W/m2
23:19 9.1 °C 8.2 °C 1009.4 hPa SSW 4 km/h 9.7 km/h 94% 0 mm 0 W/m2
23:24 9.2 °C 8.3 °C 1009 hPa South 8.2 km/h 20.9 km/h 94% 0 mm 0 W/m2
23:29 9.3 °C 8.4 °C 1009 hPa SSW 5 km/h 12.9 km/h 94% 0 mm 0 W/m2
23:34 9.3 °C 8.4 °C 1009 hPa SSW 10.3 km/h 17.7 km/h 94% 0 mm 0 W/m2
23:39 9.4 °C 8.5 °C 1009 hPa SSW 5 km/h 14.5 km/h 94% 0 mm 0 W/m2
23:44 9.3 °C 8.4 °C 1009 hPa SSW 5.3 km/h 11.3 km/h 94% 0 mm 0 W/m2
23:49 9.3 °C 8.4 °C 1009 hPa South 4.5 km/h 12.9 km/h 94% 0 mm 0 W/m2
23:54 9.3 °C 8.4 °C 1009 hPa SSW 7.2 km/h 12.9 km/h 94% 0 mm 0 W/m2
23:59 9.3 °C 8.4 °C 1009 hPa SSW 6.8 km/h 16.1 km/h 94% 0 mm 0 W/m2
Bath Spa Weather
Compliments of Weather Underground - 2 mb